• Join FlightAware (Why Join?)
  • Login
  • US Flag 
11:00AM EST


 

Airport Tracker/Info


-or-


 

Live Flight TrackerFlight Track Log ✈ N34HD ✈ 14-Aug-2013 ✈ KFRG - KFOK

Flight Track Log - Related Links

Times and Time Zones

All times are in EDT time to prevent confusion due to time zone crossing. See the N34HD flight status page for this flight to view local times or setup timezone preferences in your user account.

Time Position Orientation Groundspeed Altitude Reporting Facility
EDT Latitude Longitude Course Direction KTS MPH feet Rate Location/Type
04:54PM 40.7500 -73.4167 70° East 65 75 1,200  Level New York TRACON
04:55PM 40.7667 -73.4000 37° Northeast 80 92 1,900 660 Climbing New York TRACON
04:56PM 40.7500 -73.3833 143° Southeast 102 117 2,600 540 Climbing New York TRACON
04:57PM 40.7167 -73.3667 159° South 111 128 3,000 240 Climbing New York TRACON
04:58PM 40.6833 -73.3333 143° Southeast 133 153 3,100  Climbing New York TRACON
04:59PM 40.8244 -73.1496 70° East  Level FlightAware Approximate
04:59PM 40.6500 -73.3167 159° South 123 142 3,000  Level New York TRACON
05:01PM 40.6167 -73.2500 123° Southeast 124 143 3,000  Level New York TRACON
05:03PM 40.6167 -73.1667 90° East 119 137 3,000  Level New York TRACON
05:04PM 40.6167 -73.1333 90° East 110 127 3,000  Level New York TRACON
05:05PM 40.6333 -73.0833 66° East 112 129 3,000  Level New York TRACON
05:06PM 40.6500 -73.0500 57° Northeast 111 128 3,000  Level New York TRACON
05:07PM 40.6667 -73.0167 57° Northeast 109 125 3,100  Climbing New York TRACON
05:08PM 40.6667 -72.9833 90° East 114 131 3,000 -120 Descending New York TRACON
05:09PM 40.6833 -72.9333 66° East 112 129 2,900  Descending New York TRACON
05:10PM 40.7000 -72.9000 57° Northeast 113 130 3,000  Climbing New York TRACON
05:11PM 40.7000 -72.8667 90° East 114 131 3,000  Level New York TRACON
05:12PM 40.7167 -72.8167 66° East 115 132 3,100  Climbing New York TRACON
05:13PM 40.7333 -72.7833 57° Northeast 117 135 3,000 -60 Descending New York TRACON
05:14PM 40.7333 -72.7500 90° East 113 130 3,000  Level New York TRACON
05:15PM 40.7500 -72.7167 57° Northeast 114 131 3,000  Level New York TRACON
05:16PM 40.7667 -72.6667 66° East 139 160 3,000  Level New York TRACON
05:17PM 40.7833 -72.6333 57° Northeast 114 131 3,000  Level New York TRACON
05:18PM 40.8000 -72.6000 57° Northeast 113 130 3,000  Level New York TRACON
05:20PM 40.8167 -72.5167 75° East 112 129 3,000  Level New York TRACON
05:21PM 40.8333 -72.4833 57° Northeast 111 128 3,000  Level New York TRACON
05:22PM 40.8500 -72.4500 57° Northeast 109 125 3,000  Level New York TRACON
05:23PM 40.8667 -72.4167 57° Northeast 110 127 3,000  Level New York TRACON
05:24PM 40.9000 -72.4000 21° North 106 122 3,100  Climbing New York TRACON
05:25PM 40.9167 -72.3667 57° Northeast 109 125 3,000 -60 Descending New York TRACON
05:26PM 40.9167 -72.3333 90° East 123 142 3,000  Level New York TRACON
05:27PM 40.9333 -72.3000 56° Northeast 106 122 3,000  Level New York TRACON
05:28PM 40.9333 -72.3167 270° West 104 120 3,000  Level New York TRACON
05:29PM 40.9167 -72.3500 237° Southwest 91 105 3,100 -180 Climbing New York TRACON
05:30PM 40.9333 -72.3667 323° Northwest 90 104 2,700 -720 Descending New York TRACON
05:31PM 40.9500 -72.4000 304° West 93 107 1,700 -600 Descending New York TRACON
05:32PM 40.9667 -72.4333 304° West 82 94 1,600 120 Descending New York TRACON
05:33PM 40.9667 -72.4500 270° West 76 87 2,000 180 Climbing New York TRACON
05:34PM 40.9833 -72.4833 304° West 83 96 2,000 -60 Level New York TRACON
05:35PM 40.9500 -72.4833 180° South 129 148 1,900 -60 Descending New York TRACON
05:36PM 40.9333 -72.5000 217° Southwest 86 99 1,900 -180 Level New York TRACON
05:37PM 40.9167 -72.5333 237° Southwest 90 104 1,600 -180 Descending New York TRACON
05:38PM 40.9000 -72.5500 217° Southwest 90 104 1,600 -360 Level New York TRACON
05:39PM 40.8833 -72.5833 237° Southwest 97 112 1,000 -480 Descending New York TRACON
05:40PM 40.8667 -72.6000 217° Southwest 85 98 700 -300 Descending New York TRACON
05:42PM 40.8333 -72.6167 252° West  Level FlightAware Approximate
05:49PM 40.8437 -72.6318 252° West  Level Estimated
05:50PM 40.8437 -72.6318 252° West  Level Estimated
05:51PM 40.8437 -72.6318 252° West  Level Estimated